createdAt,value
2018-05-25T00:00:08.892Z,26.40
2018-05-25T00:01:08.847Z,25.70
2018-05-25T00:02:08.809Z,25.40
2018-05-25T00:03:08.780Z,25.50
2018-05-25T00:04:08.728Z,25.90
2018-05-25T00:05:08.688Z,25.50
2018-05-25T00:06:08.649Z,24.80
2018-05-25T00:07:08.609Z,26.00
2018-05-25T00:08:08.566Z,26.30
2018-05-25T00:09:08.524Z,25.10
2018-05-25T00:10:08.497Z,25.20
2018-05-25T00:11:08.446Z,25.30
2018-05-25T00:12:08.403Z,25.20
2018-05-25T00:13:08.363Z,24.60
2018-05-25T00:14:08.338Z,25.50
2018-05-25T00:15:08.285Z,24.90
2018-05-25T00:16:08.248Z,25.40
2018-05-25T00:17:08.201Z,25.30
2018-05-25T00:18:08.162Z,24.60
2018-05-25T00:19:08.124Z,24.00
2018-05-25T00:20:08.081Z,24.80
2018-05-25T00:21:08.043Z,25.70
2018-05-25T00:22:08.003Z,25.60
2018-05-25T00:23:07.958Z,26.00
2018-05-25T00:24:07.920Z,26.20
2018-05-25T00:25:07.876Z,26.50
2018-05-25T00:26:07.837Z,26.40
2018-05-25T00:27:07.795Z,26.20
2018-05-25T00:28:07.754Z,25.90
2018-05-25T00:29:07.716Z,26.50
2018-05-25T00:30:07.678Z,25.40
2018-05-25T00:31:07.636Z,25.60
2018-05-25T00:32:07.592Z,26.80
2018-05-25T00:33:07.552Z,26.90
2018-05-25T00:34:07.509Z,26.30
2018-05-25T00:35:07.472Z,25.90
2018-05-25T00:36:07.432Z,27.20
2018-05-25T00:37:07.390Z,26.80
2018-05-25T00:38:07.348Z,26.60
2018-05-25T00:39:07.307Z,27.20
2018-05-25T00:40:07.270Z,25.10
2018-05-25T00:41:07.226Z,26.00
2018-05-25T00:42:07.185Z,27.90
2018-05-25T00:43:07.145Z,27.00
2018-05-25T00:44:07.105Z,27.30
2018-05-25T00:45:07.068Z,27.00
2018-05-25T00:46:07.024Z,28.30
2018-05-25T00:47:06.983Z,28.30
2018-05-25T00:48:06.944Z,29.10
2018-05-25T00:49:06.905Z,29.50
2018-05-25T00:50:06.864Z,29.80
2018-05-25T00:51:06.821Z,27.90
2018-05-25T00:52:06.786Z,27.50
2018-05-25T00:53:06.765Z,28.90
2018-05-25T00:54:06.697Z,29.60
2018-05-25T00:55:06.659Z,31.30
2018-05-25T00:56:06.633Z,30.60
2018-05-25T00:57:06.581Z,31.10
2018-05-25T00:58:06.535Z,30.60
2018-05-25T00:59:06.499Z,30.70
2018-05-25T01:00:06.453Z,31.20
2018-05-25T01:01:06.413Z,31.20
2018-05-25T01:02:06.380Z,31.70
2018-05-25T01:03:06.331Z,31.40
2018-05-25T01:04:06.290Z,32.20
2018-05-25T01:05:06.252Z,32.80
2018-05-25T01:06:06.211Z,32.50
2018-05-25T01:07:06.167Z,33.10
2018-05-25T01:08:06.127Z,32.30
2018-05-25T01:09:06.092Z,32.80
2018-05-25T01:10:06.047Z,32.80
2018-05-25T01:11:06.009Z,34.60
2018-05-25T01:12:05.966Z,33.50
2018-05-25T01:13:05.931Z,32.90
2018-05-25T01:14:05.891Z,34.60
2018-05-25T01:15:05.866Z,33.90
2018-05-25T01:16:05.805Z,35.90
2018-05-25T01:17:05.761Z,35.70
2018-05-25T01:18:05.724Z,36.20
2018-05-25T01:19:05.689Z,34.20
2018-05-25T01:20:05.640Z,35.60
2018-05-25T01:21:05.601Z,35.90
2018-05-25T01:22:05.557Z,37.00
2018-05-25T01:23:05.519Z,36.70
2018-05-25T01:24:05.481Z,35.30
2018-05-25T01:25:05.441Z,35.50
2018-05-25T01:26:05.402Z,37.40
2018-05-25T01:27:05.354Z,37.00
2018-05-25T01:28:05.316Z,37.20
2018-05-25T01:29:05.273Z,37.50
2018-05-25T01:30:05.243Z,38.30
2018-05-25T01:31:05.192Z,38.60
2018-05-25T01:32:05.154Z,38.10
2018-05-25T01:33:05.114Z,37.40
2018-05-25T01:34:05.069Z,37.50
2018-05-25T01:35:05.029Z,38.80
2018-05-25T01:36:04.988Z,38.30
2018-05-25T01:37:04.948Z,36.80
2018-05-25T01:38:04.913Z,38.40
2018-05-25T01:39:04.874Z,38.00
2018-05-25T01:40:04.827Z,38.90
2018-05-25T01:41:04.791Z,38.90
2018-05-25T01:42:04.745Z,38.30
2018-05-25T01:43:04.703Z,37.20
2018-05-25T01:44:04.663Z,39.30
2018-05-25T01:45:04.627Z,38.60
2018-05-25T01:46:04.585Z,38.40
2018-05-25T01:47:04.552Z,38.70
2018-05-25T01:48:04.503Z,38.20
2018-05-25T01:49:04.462Z,39.50
2018-05-25T01:50:04.418Z,38.90
2018-05-25T01:51:04.378Z,38.80
2018-05-25T01:52:04.340Z,38.70
2018-05-25T01:53:04.301Z,38.20
2018-05-25T01:54:04.257Z,38.80
2018-05-25T01:55:04.215Z,39.00
2018-05-25T01:56:04.178Z,38.60
2018-05-25T01:57:04.134Z,38.20
2018-05-25T01:58:04.095Z,38.80
2018-05-25T01:59:04.053Z,39.40
2018-05-25T02:00:04.011Z,37.70
2018-05-25T02:01:03.970Z,38.60
2018-05-25T02:02:03.929Z,39.40
2018-05-25T02:03:03.891Z,37.80
2018-05-25T02:04:03.854Z,39.90
2018-05-25T02:05:03.812Z,38.60
2018-05-25T02:06:03.768Z,39.90
2018-05-25T02:07:03.726Z,37.70
2018-05-25T02:08:03.689Z,38.90
2018-05-25T02:09:03.645Z,37.80
2018-05-25T02:10:03.603Z,39.30
2018-05-25T02:11:03.566Z,39.80
2018-05-25T02:12:03.527Z,39.50
2018-05-25T02:13:03.485Z,39.60
2018-05-25T02:14:03.442Z,38.50
2018-05-25T02:15:03.401Z,38.40
2018-05-25T02:16:03.360Z,38.00
2018-05-25T02:17:03.327Z,38.70
2018-05-25T02:18:03.278Z,38.70
2018-05-25T02:19:03.238Z,38.70
2018-05-25T02:20:03.198Z,39.60
2018-05-25T02:21:03.157Z,39.90
2018-05-25T02:22:03.116Z,39.00
2018-05-25T02:23:03.075Z,39.60
2018-05-25T02:24:03.034Z,39.30
2018-05-25T02:25:02.995Z,38.80
2018-05-25T02:26:02.954Z,38.80
2018-05-25T02:27:02.913Z,38.50
2018-05-25T02:28:02.875Z,38.30
2018-05-25T02:29:02.832Z,38.40
2018-05-25T02:30:02.791Z,39.40
2018-05-25T02:31:02.751Z,39.20
2018-05-25T02:32:02.711Z,39.00
2018-05-25T02:33:02.680Z,38.00
2018-05-25T02:34:02.626Z,38.70
2018-05-25T02:35:02.586Z,38.40
2018-05-25T02:36:02.550Z,39.40
2018-05-25T02:37:02.507Z,38.40
2018-05-25T02:38:02.469Z,38.00
2018-05-25T02:39:02.424Z,37.40
2018-05-25T02:40:02.386Z,38.00
2018-05-25T02:41:02.344Z,39.60
2018-05-25T02:42:02.304Z,39.90
2018-05-25T02:43:02.263Z,37.60
2018-05-25T02:44:02.223Z,38.40
2018-05-25T02:45:02.180Z,38.20
2018-05-25T02:46:02.141Z,37.80
2018-05-25T02:47:02.098Z,38.60
2018-05-25T02:48:02.058Z,38.60
2018-05-25T02:49:02.017Z,38.60
2018-05-25T02:50:01.976Z,38.80
2018-05-25T02:51:01.935Z,39.20
2018-05-25T02:52:01.896Z,38.40
2018-05-25T02:53:01.854Z,38.80
2018-05-25T02:54:01.811Z,37.90
2018-05-25T02:55:01.776Z,39.50
2018-05-25T02:56:01.731Z,39.10
2018-05-25T02:57:01.691Z,38.60
2018-05-25T02:58:01.650Z,38.40
2018-05-25T02:59:01.610Z,39.70
2018-05-25T03:00:01.569Z,39.20
2018-05-25T03:01:01.529Z,39.80
2018-05-25T03:02:01.487Z,36.80
2018-05-25T03:03:01.446Z,38.50
2018-05-25T03:04:01.415Z,37.00
2018-05-25T03:05:01.370Z,38.40
2018-05-25T03:06:01.324Z,39.30
2018-05-25T03:07:01.285Z,37.70
2018-05-25T03:08:01.242Z,38.80
2018-05-25T03:09:01.203Z,38.70
2018-05-25T03:10:01.161Z,39.30
2018-05-25T03:11:01.121Z,39.40
2018-05-25T03:12:01.078Z,38.80
2018-05-25T03:13:01.038Z,38.90
2018-05-25T03:14:00.997Z,39.80
2018-05-25T03:15:00.956Z,38.90
2018-05-25T03:16:00.918Z,38.10
2018-05-25T03:17:00.910Z,40.00
2018-05-25T03:18:00.833Z,38.70
2018-05-25T03:19:00.792Z,39.90
2018-05-25T03:20:00.751Z,41.20
2018-05-25T03:21:00.710Z,41.40
2018-05-25T03:22:00.673Z,40.80
2018-05-25T03:23:00.628Z,40.60
2018-05-25T03:24:00.592Z,40.60
2018-05-25T03:25:00.548Z,40.40
2018-05-25T03:26:00.512Z,41.20
2018-05-25T03:27:00.464Z,40.50
2018-05-25T03:28:00.426Z,39.80
2018-05-25T03:29:00.387Z,41.10
2018-05-25T03:30:00.342Z,39.00
2018-05-25T03:31:00.305Z,41.80
2018-05-25T03:32:00.276Z,39.40
2018-05-25T03:33:00.226Z,39.50
2018-05-25T03:34:00.181Z,38.30
2018-05-25T03:35:00.138Z,39.90
2018-05-25T03:36:00.097Z,40.10
2018-05-25T03:37:00.057Z,39.20
2018-05-25T03:38:00.013Z,39.80
2018-05-25T03:38:59.978Z,39.40
2018-05-25T03:39:59.933Z,39.00
2018-05-25T03:40:59.893Z,39.80
2018-05-25T03:41:59.856Z,39.60
2018-05-25T03:42:59.809Z,40.60
2018-05-25T03:43:59.769Z,40.00
2018-05-25T03:44:59.731Z,39.70
2018-05-25T03:45:59.688Z,38.80
2018-05-25T03:46:59.647Z,39.80
2018-05-25T03:47:59.608Z,39.60
2018-05-25T03:48:59.568Z,38.40
2018-05-25T03:49:59.524Z,38.60
2018-05-25T03:50:59.483Z,39.70
2018-05-25T03:51:59.443Z,40.40
2018-05-25T03:52:59.403Z,38.60
2018-05-25T03:53:59.361Z,38.50
2018-05-25T03:54:59.324Z,39.00
2018-05-25T03:55:59.282Z,39.50
2018-05-25T03:56:59.239Z,38.90
2018-05-25T03:57:59.326Z,38.80
2018-05-25T03:58:59.159Z,38.00
2018-05-25T03:59:59.116Z,38.50
2018-05-25T04:00:59.076Z,37.90
2018-05-25T04:01:59.033Z,38.50
2018-05-25T04:02:59.003Z,39.10
2018-05-25T04:03:58.956Z,37.80
2018-05-25T04:04:58.912Z,37.40
2018-05-25T04:05:58.873Z,38.30
2018-05-25T04:06:58.831Z,38.70
2018-05-25T04:07:58.788Z,37.80
2018-05-25T04:08:58.754Z,37.00
2018-05-25T04:09:58.709Z,35.90
2018-05-25T04:10:58.668Z,38.00
2018-05-25T04:11:58.627Z,38.00
2018-05-25T04:12:58.585Z,38.90
2018-05-25T04:13:58.548Z,36.50
2018-05-25T04:14:58.505Z,36.60
2018-05-25T04:15:58.464Z,36.10
2018-05-25T04:16:58.425Z,36.80
2018-05-25T04:17:58.379Z,37.60
2018-05-25T04:18:58.340Z,36.90
2018-05-25T04:19:58.298Z,37.20
2018-05-25T04:20:58.261Z,37.90
2018-05-25T04:21:58.221Z,34.90
2018-05-25T04:22:58.176Z,36.50
2018-05-25T04:23:58.139Z,36.10
2018-05-25T04:24:58.098Z,37.20
2018-05-25T04:25:58.057Z,37.60
2018-05-25T04:26:58.016Z,37.70
2018-05-25T04:27:57.974Z,37.10
2018-05-25T04:28:57.932Z,36.90
2018-05-25T04:29:57.892Z,36.70
2018-05-25T04:30:57.852Z,37.60
2018-05-25T04:31:57.819Z,36.30
2018-05-25T04:32:57.772Z,36.10
2018-05-25T04:33:57.728Z,36.80
2018-05-25T04:34:57.693Z,36.70
2018-05-25T04:35:57.651Z,35.00
2018-05-25T04:36:57.606Z,36.50
2018-05-25T04:37:57.564Z,37.00
2018-05-25T04:38:57.526Z,37.30
2018-05-25T04:39:57.484Z,36.90
2018-05-25T04:40:57.450Z,37.40
2018-05-25T04:41:57.402Z,37.20
2018-05-25T04:42:57.367Z,36.90
2018-05-25T04:43:57.323Z,38.40
2018-05-25T04:44:57.278Z,38.30
2018-05-25T04:45:57.238Z,38.00
2018-05-25T04:46:57.226Z,38.00
2018-05-25T04:47:57.157Z,39.50
2018-05-25T04:48:57.120Z,37.00
2018-05-25T04:49:57.076Z,38.50
2018-05-25T04:50:57.035Z,36.70
2018-05-25T04:51:56.996Z,38.10
2018-05-25T04:52:56.953Z,37.40
2018-05-25T04:53:56.914Z,38.50
2018-05-25T04:54:56.871Z,39.00
2018-05-25T04:55:56.832Z,36.60
2018-05-25T04:56:56.795Z,36.40
2018-05-25T04:57:56.764Z,36.30
2018-05-25T04:58:56.711Z,37.10
2018-05-25T04:59:56.681Z,38.10
2018-05-25T05:00:56.649Z,37.60
2018-05-25T05:01:56.592Z,36.90
2018-05-25T05:02:56.545Z,36.80
2018-05-25T05:03:56.506Z,36.20
2018-05-25T05:04:56.511Z,37.30
2018-05-25T05:05:56.424Z,35.70
2018-05-25T05:06:56.384Z,34.20
2018-05-25T05:07:56.343Z,35.80
2018-05-25T05:08:56.300Z,35.50
2018-05-25T05:09:56.262Z,36.90
2018-05-25T05:10:56.218Z,35.70
2018-05-25T05:11:56.179Z,35.60
2018-05-25T05:12:56.145Z,35.80
2018-05-25T05:13:56.101Z,34.60
2018-05-25T05:14:56.057Z,34.90
2018-05-25T05:15:56.027Z,36.20
2018-05-25T05:16:55.977Z,35.80
2018-05-25T05:17:55.936Z,36.60
2018-05-25T05:18:55.893Z,35.70
2018-05-25T05:19:55.857Z,35.60
2018-05-25T05:20:55.815Z,36.70
2018-05-25T05:21:55.790Z,35.90
2018-05-25T05:22:55.731Z,36.30
2018-05-25T05:23:55.692Z,37.10
2018-05-25T05:24:55.649Z,35.50
2018-05-25T05:25:55.615Z,35.50
2018-05-25T05:26:55.569Z,35.20
2018-05-25T05:27:55.529Z,35.00
2018-05-25T05:28:55.490Z,35.50
2018-05-25T05:29:55.446Z,35.70
2018-05-25T05:30:55.413Z,35.10
2018-05-25T05:31:55.377Z,34.50
2018-05-25T05:32:55.338Z,34.40
2018-05-25T05:33:55.285Z,33.80
2018-05-25T05:34:55.244Z,34.30
2018-05-25T05:35:55.202Z,34.90
2018-05-25T05:36:55.167Z,33.90
2018-05-25T05:37:55.123Z,33.00
2018-05-25T05:38:55.084Z,32.80
2018-05-25T05:39:55.048Z,32.60
2018-05-25T05:40:55.056Z,34.00
2018-05-25T05:41:54.980Z,33.50
2018-05-25T05:42:54.930Z,32.60
2018-05-25T05:43:54.886Z,33.70
2018-05-25T05:44:54.842Z,32.50
2018-05-25T05:45:54.799Z,32.70
2018-05-25T05:46:54.758Z,32.50
2018-05-25T05:47:54.721Z,32.10
2018-05-25T05:48:54.679Z,32.20
2018-05-25T05:49:54.635Z,33.90
2018-05-25T05:50:54.612Z,31.80
2018-05-25T05:51:54.557Z,31.30
2018-05-25T05:52:54.517Z,32.80
2018-05-25T05:53:54.475Z,31.70
2018-05-25T05:54:54.435Z,31.70
2018-05-25T05:55:54.418Z,31.00
2018-05-25T05:56:54.358Z,30.60
2018-05-25T05:57:54.312Z,29.90
2018-05-25T05:58:54.275Z,30.00
2018-05-25T05:59:54.232Z,30.20
2018-05-25T06:00:54.191Z,30.30
2018-05-25T06:01:54.152Z,30.90
2018-05-25T06:02:54.115Z,29.50
2018-05-25T06:03:54.075Z,29.10
2018-05-25T06:04:54.031Z,28.60
2018-05-25T06:05:53.995Z,30.30
2018-05-25T06:06:53.949Z,30.10
2018-05-25T06:07:53.909Z,29.50
2018-05-25T06:08:53.871Z,29.60
2018-05-25T06:09:53.830Z,30.30
2018-05-25T06:10:53.790Z,28.40
2018-05-25T06:11:53.749Z,29.10
2018-05-25T06:12:53.710Z,27.90
2018-05-25T06:13:53.669Z,29.90
2018-05-25T06:14:53.626Z,29.80
2018-05-25T06:15:53.589Z,28.60
2018-05-25T06:16:53.547Z,28.20
2018-05-25T06:17:53.507Z,27.60
2018-05-25T06:18:53.467Z,27.90
2018-05-25T06:19:53.426Z,29.10
2018-05-25T06:20:53.399Z,27.80
2018-05-25T06:21:53.348Z,27.10
2018-05-25T06:22:53.305Z,28.10
2018-05-25T06:23:53.266Z,27.10
2018-05-25T06:24:53.227Z,27.60
2018-05-25T06:25:53.190Z,28.60
2018-05-25T06:26:53.145Z,28.30
2018-05-25T06:27:53.106Z,28.00
2018-05-25T06:28:53.067Z,27.70
2018-05-25T06:29:53.028Z,28.30
2018-05-25T06:30:52.986Z,28.40
2018-05-25T06:31:52.945Z,28.10
2018-05-25T06:32:52.912Z,27.90
2018-05-25T06:33:52.869Z,28.30
2018-05-25T06:34:52.850Z,28.40
2018-05-25T06:35:52.788Z,27.70
2018-05-25T06:36:52.746Z,28.00
2018-05-25T06:37:52.707Z,27.10
2018-05-25T06:38:52.669Z,27.80
2018-05-25T06:39:52.631Z,27.00
2018-05-25T06:40:52.589Z,26.30
2018-05-25T06:41:52.546Z,26.50
2018-05-25T06:42:52.512Z,24.30
2018-05-25T06:43:52.467Z,24.80
2018-05-25T06:44:52.442Z,23.50
2018-05-25T06:45:52.395Z,23.60
2018-05-25T06:46:52.355Z,24.60
2018-05-25T06:47:52.313Z,23.50
2018-05-25T06:48:52.306Z,24.20
2018-05-25T06:49:52.240Z,23.80
2018-05-25T06:50:52.194Z,23.60
2018-05-25T06:51:52.156Z,22.20
2018-05-25T06:52:52.117Z,23.00
2018-05-25T06:53:52.068Z,23.90
2018-05-25T06:54:52.034Z,23.50
2018-05-25T06:55:51.994Z,23.10
2018-05-25T06:56:51.951Z,22.10
2018-05-25T06:57:51.924Z,22.30
2018-05-25T06:58:51.871Z,22.00
2018-05-25T06:59:51.832Z,21.80
2018-05-25T07:00:51.793Z,21.40
2018-05-25T07:01:51.756Z,21.00
2018-05-25T07:02:51.714Z,20.80
2018-05-25T07:03:51.681Z,20.50
2018-05-25T07:04:51.634Z,19.20
2018-05-25T07:05:51.599Z,19.70
2018-05-25T07:06:51.557Z,20.00
2018-05-25T07:07:51.522Z,19.10
2018-05-25T07:08:51.477Z,17.00
2018-05-25T07:09:51.439Z,17.80
2018-05-25T07:10:51.400Z,16.90
2018-05-25T07:11:51.363Z,17.10
2018-05-25T07:12:51.319Z,17.90
2018-05-25T07:13:51.280Z,17.20
2018-05-25T07:14:51.245Z,17.20
2018-05-25T07:15:51.206Z,17.30
2018-05-25T07:16:51.164Z,17.10
2018-05-25T07:17:51.125Z,16.20
2018-05-25T07:18:51.088Z,17.30
2018-05-25T07:19:51.051Z,16.70
2018-05-25T07:20:51.009Z,17.10
2018-05-25T07:21:50.970Z,16.30
2018-05-25T07:22:50.928Z,15.80
2018-05-25T07:23:50.890Z,17.20
2018-05-25T07:24:50.853Z,17.20
2018-05-25T07:25:50.812Z,17.00
2018-05-25T07:26:50.811Z,16.50
2018-05-25T07:27:50.734Z,16.30
2018-05-25T07:28:50.694Z,15.90
2018-05-25T07:29:50.654Z,18.20
2018-05-25T07:30:50.617Z,18.60
2018-05-25T07:31:50.577Z,16.40
2018-05-25T07:32:50.542Z,17.50
2018-05-25T07:33:50.500Z,17.40
2018-05-25T07:34:50.461Z,17.80
2018-05-25T07:35:50.427Z,16.70
2018-05-25T07:36:50.384Z,16.50
2018-05-25T07:37:50.344Z,16.10
2018-05-25T07:38:50.306Z,16.40
2018-05-25T07:39:50.267Z,15.90
2018-05-25T07:40:50.235Z,16.30
2018-05-25T07:41:50.190Z,16.70
2018-05-25T07:42:50.152Z,16.70
2018-05-25T07:43:50.112Z,17.00
2018-05-25T07:44:50.072Z,16.40
2018-05-25T07:45:50.039Z,16.60
2018-05-25T07:46:49.997Z,16.10
2018-05-25T07:47:49.956Z,16.70
2018-05-25T07:48:49.920Z,16.00
2018-05-25T07:49:49.878Z,16.10
2018-05-25T07:50:49.842Z,16.50
2018-05-25T07:51:49.805Z,16.00
2018-05-25T07:52:49.766Z,16.80
2018-05-25T07:53:49.725Z,16.00
2018-05-25T07:54:49.702Z,16.50
2018-05-25T07:55:49.647Z,16.70
2018-05-25T07:56:49.609Z,16.00
2018-05-25T07:57:49.569Z,16.40
2018-05-25T07:58:49.530Z,15.90
2018-05-25T07:59:49.494Z,15.40
2018-05-25T08:00:49.454Z,16.20
2018-05-25T08:01:49.416Z,16.50
2018-05-25T08:02:49.376Z,16.30
2018-05-25T08:03:49.339Z,16.10
2018-05-25T08:04:49.303Z,16.20
2018-05-25T08:05:49.261Z,16.40
2018-05-25T08:06:49.222Z,16.00
2018-05-25T08:07:49.188Z,16.00
2018-05-25T08:08:49.146Z,16.40
2018-05-25T08:09:49.109Z,15.30
2018-05-25T08:10:49.068Z,16.10
2018-05-25T08:11:49.032Z,16.10
2018-05-25T08:12:48.993Z,15.50
2018-05-25T08:13:48.955Z,16.50
2018-05-25T08:14:48.915Z,16.20
2018-05-25T08:15:48.879Z,16.00
2018-05-25T08:16:48.840Z,15.60
2018-05-25T08:17:48.806Z,15.10
2018-05-25T08:18:48.764Z,15.30
2018-05-25T08:19:48.729Z,15.40
2018-05-25T08:20:48.696Z,14.90
2018-05-25T08:21:48.721Z,14.60
2018-05-25T08:22:48.612Z,15.40
2018-05-25T08:23:48.574Z,14.20
2018-05-25T08:24:48.538Z,14.20
2018-05-25T08:25:48.498Z,15.40
2018-05-25T08:26:48.460Z,16.70
2018-05-25T08:27:48.423Z,15.20
2018-05-25T08:28:48.386Z,14.50
2018-05-25T08:29:48.347Z,14.70
2018-05-25T08:30:48.311Z,14.00
2018-05-25T08:32:48.233Z,14.70
2018-05-25T08:33:48.242Z,15.10
2018-05-25T08:34:48.158Z,14.50
2018-05-25T08:35:48.124Z,13.70
2018-05-25T08:36:48.085Z,14.50
2018-05-25T08:37:48.045Z,15.00
2018-05-25T08:38:48.014Z,15.00
2018-05-25T08:39:47.969Z,15.40
2018-05-25T08:40:47.932Z,14.30
2018-05-25T08:41:47.894Z,14.50
2018-05-25T08:42:47.861Z,15.30
2018-05-25T08:43:47.819Z,15.70
2018-05-25T08:44:47.783Z,14.80
2018-05-25T08:45:47.746Z,14.30
2018-05-25T08:46:47.705Z,14.30
2018-05-25T08:47:47.669Z,14.40
2018-05-25T08:48:47.631Z,15.20
2018-05-25T08:49:47.595Z,15.90
2018-05-25T08:50:47.556Z,16.60
2018-05-25T08:51:47.518Z,15.90
2018-05-25T08:52:47.483Z,15.20
2018-05-25T08:53:47.443Z,15.60
2018-05-25T08:54:47.406Z,15.60
2018-05-25T08:55:47.368Z,16.00
2018-05-25T08:56:47.331Z,16.60
2018-05-25T08:57:47.292Z,18.90
2018-05-25T08:58:47.256Z,19.30
2018-05-25T08:59:47.218Z,20.60
2018-05-25T09:00:47.181Z,21.00
2018-05-25T09:01:47.141Z,19.90
2018-05-25T09:03:47.067Z,20.40
2018-05-25T09:04:47.033Z,19.90
2018-05-25T09:05:46.996Z,19.70
2018-05-25T09:06:46.999Z,20.30
2018-05-25T09:07:46.917Z,19.30
2018-05-25T09:08:46.882Z,19.00
2018-05-25T09:09:46.845Z,19.50
2018-05-25T09:10:46.808Z,18.30
2018-05-25T09:11:46.770Z,17.70
2018-05-25T09:12:46.730Z,18.80
2018-05-25T09:13:46.690Z,19.00
2018-05-25T09:14:46.656Z,19.20
2018-05-25T09:15:46.618Z,18.10
2018-05-25T09:16:46.582Z,18.80
2018-05-25T09:17:46.542Z,18.90
2018-05-25T09:18:46.505Z,17.30
2018-05-25T09:19:46.468Z,16.30
2018-05-25T09:20:46.432Z,15.90
2018-05-25T09:21:46.443Z,16.50
2018-05-25T09:22:46.355Z,16.10
2018-05-25T09:23:46.323Z,15.30
2018-05-25T09:24:46.280Z,14.60
2018-05-25T09:25:46.244Z,14.20
2018-05-25T09:26:46.205Z,14.60
2018-05-25T09:27:46.168Z,14.00
2018-05-25T09:28:46.130Z,14.00
2018-05-25T09:29:46.098Z,14.10
2018-05-25T09:30:46.099Z,12.00
2018-05-25T09:31:46.021Z,13.10
2018-05-25T09:32:45.983Z,14.50
2018-05-25T09:33:45.945Z,14.50
2018-05-25T09:34:45.907Z,14.50
2018-05-25T09:35:45.870Z,14.20
2018-05-25T09:36:45.854Z,13.50
2018-05-25T09:37:45.813Z,12.80
2018-05-25T09:38:45.761Z,14.20
2018-05-25T09:39:45.724Z,14.40
2018-05-25T09:40:45.687Z,14.60
2018-05-25T09:41:45.649Z,14.90
2018-05-25T09:42:45.613Z,15.10
2018-05-25T09:43:45.574Z,14.60
2018-05-25T09:44:45.542Z,14.70
2018-05-25T09:45:45.504Z,15.90
2018-05-25T09:46:45.463Z,15.20
2018-05-25T09:47:45.427Z,15.70
2018-05-25T09:48:45.395Z,15.70
2018-05-25T09:49:45.352Z,15.60
2018-05-25T09:50:45.319Z,13.80
2018-05-25T09:51:45.280Z,13.00
2018-05-25T09:52:45.244Z,12.90
2018-05-25T09:53:45.206Z,12.60
2018-05-25T09:54:45.168Z,12.90
2018-05-25T09:55:45.135Z,12.50
2018-05-25T09:56:45.096Z,12.30
2018-05-25T09:57:45.060Z,11.30
2018-05-25T09:58:45.029Z,12.30
2018-05-25T09:59:44.987Z,12.40
2018-05-25T10:00:44.950Z,12.20
2018-05-25T10:01:44.912Z,12.50
2018-05-25T10:02:44.877Z,12.20
2018-05-25T10:03:44.845Z,12.10
2018-05-25T10:04:44.804Z,11.70
2018-05-25T10:05:44.766Z,12.10
2018-05-25T10:06:44.731Z,11.90
2018-05-25T10:07:44.694Z,11.20
2018-05-25T10:08:44.659Z,11.70
2018-05-25T10:09:44.622Z,12.10
2018-05-25T10:10:44.590Z,12.10
2018-05-25T10:11:44.557Z,11.10
2018-05-25T10:12:44.526Z,11.30
2018-05-25T10:13:44.476Z,11.80
2018-05-25T10:14:44.441Z,11.60
2018-05-25T10:15:44.407Z,11.60
2018-05-25T10:16:44.369Z,11.00
2018-05-25T10:17:44.333Z,12.00
2018-05-25T10:18:44.298Z,11.90
2018-05-25T10:19:44.263Z,10.90
2018-05-25T10:20:44.236Z,10.50
2018-05-25T10:21:44.190Z,10.40
2018-05-25T10:22:44.153Z,11.10
2018-05-25T10:23:44.123Z,11.80
2018-05-25T10:24:44.082Z,12.10
2018-05-25T10:25:44.054Z,11.30
2018-05-25T10:26:44.014Z,11.30
2018-05-25T10:27:43.975Z,11.30
2018-05-25T10:28:43.992Z,12.10
2018-05-25T10:29:43.904Z,10.90
2018-05-25T10:30:43.868Z,9.60
2018-05-25T10:31:43.833Z,11.40
2018-05-25T10:32:43.798Z,11.40
2018-05-25T10:33:43.765Z,10.80
2018-05-25T10:34:43.725Z,12.50
2018-05-25T10:35:43.690Z,12.00
2018-05-25T10:36:43.656Z,11.90
2018-05-25T10:37:43.617Z,11.90
2018-05-25T10:38:43.583Z,12.30
2018-05-25T10:39:43.543Z,12.20
2018-05-25T10:40:43.508Z,11.30
2018-05-25T10:41:43.475Z,12.40
2018-05-25T10:42:43.439Z,11.60
2018-05-25T10:43:43.402Z,11.30
2018-05-25T10:44:43.368Z,12.50
2018-05-25T10:45:43.385Z,11.90
2018-05-25T10:46:43.293Z,11.90
2018-05-25T10:47:43.257Z,12.10
2018-05-25T10:48:43.311Z,11.70
2018-05-25T10:49:43.187Z,11.80
2018-05-25T10:50:43.153Z,10.60
2018-05-25T10:51:43.114Z,11.10
2018-05-25T10:52:43.089Z,11.80
2018-05-25T10:53:43.048Z,10.90
2018-05-25T10:54:43.007Z,10.90
2018-05-25T10:55:42.969Z,10.60
2018-05-25T10:56:42.935Z,10.70
2018-05-25T10:57:42.900Z,11.50
2018-05-25T10:58:42.860Z,10.90
2018-05-25T10:59:42.825Z,11.10
2018-05-25T11:00:42.798Z,11.70
2018-05-25T11:01:42.753Z,10.60
2018-05-25T11:02:42.716Z,10.80
2018-05-25T11:03:42.720Z,11.20
2018-05-25T11:04:42.650Z,10.40
2018-05-25T11:05:42.609Z,11.10
2018-05-25T11:06:42.576Z,10.30
2018-05-25T11:07:42.538Z,11.10
2018-05-25T11:08:42.503Z,10.30
2018-05-25T11:09:42.465Z,11.20
2018-05-25T11:10:42.433Z,10.50
2018-05-25T11:11:42.397Z,10.50
2018-05-25T11:12:42.365Z,11.10
2018-05-25T11:13:42.321Z,11.20
2018-05-25T11:14:42.294Z,10.10
2018-05-25T11:15:42.248Z,10.80
2018-05-25T11:16:42.215Z,10.50
2018-05-25T11:17:42.178Z,12.20
2018-05-25T11:18:42.143Z,13.00
2018-05-25T11:19:42.109Z,12.30
2018-05-25T11:20:42.070Z,11.80
2018-05-25T11:21:42.031Z,12.10
2018-05-25T11:22:41.997Z,13.60
2018-05-25T11:23:41.962Z,12.70
2018-05-25T11:24:41.927Z,11.60
2018-05-25T11:25:41.889Z,11.10
2018-05-25T11:26:41.854Z,11.90
2018-05-25T11:28:41.783Z,13.90
2018-05-25T11:29:41.744Z,13.90
2018-05-25T11:30:41.709Z,14.00
2018-05-25T11:31:41.671Z,11.80
2018-05-25T11:32:41.640Z,14.80
2018-05-25T11:33:41.604Z,14.20
2018-05-25T11:34:41.563Z,13.90
2018-05-25T11:35:41.530Z,13.20
2018-05-25T11:36:41.493Z,13.00
2018-05-25T11:37:41.458Z,13.70
2018-05-25T11:38:41.448Z,13.70
2018-05-25T11:39:41.393Z,14.60
2018-05-25T11:40:41.350Z,13.60
2018-05-25T11:41:41.314Z,13.00
2018-05-25T11:42:41.286Z,12.90
2018-05-25T11:43:41.240Z,12.60
2018-05-25T11:44:41.209Z,11.50
2018-05-25T11:45:41.168Z,12.60
2018-05-25T11:46:41.149Z,12.90
2018-05-25T11:47:41.099Z,13.80
2018-05-25T11:48:41.061Z,14.80
2018-05-25T11:49:41.023Z,13.90
2018-05-25T11:50:40.989Z,12.60
2018-05-25T11:51:40.952Z,12.80
2018-05-25T11:52:40.918Z,14.40
2018-05-25T11:53:40.882Z,14.40
2018-05-25T11:54:40.845Z,13.20
2018-05-25T11:55:40.808Z,13.40
2018-05-25T11:56:40.772Z,14.00
2018-05-25T11:57:40.736Z,13.80
2018-05-25T11:58:40.702Z,14.40
2018-05-25T11:59:40.665Z,12.50
2018-05-25T12:00:40.639Z,13.70
2018-05-25T12:01:40.599Z,11.20
2018-05-25T12:02:40.574Z,13.30
2018-05-25T12:03:40.521Z,12.20
2018-05-25T12:04:40.487Z,12.40
2018-05-25T12:05:40.450Z,13.10
2018-05-25T12:06:40.427Z,12.80
2018-05-25T12:07:40.383Z,12.00
2018-05-25T12:08:40.344Z,11.80
2018-05-25T12:09:40.318Z,11.60
2018-05-25T12:10:40.275Z,11.40
2018-05-25T12:11:40.266Z,11.00
2018-05-25T12:12:40.210Z,10.40
2018-05-25T12:13:40.180Z,11.20
2018-05-25T12:14:40.140Z,11.20
2018-05-25T12:15:40.098Z,10.80
2018-05-25T12:16:40.065Z,10.50
2018-05-25T12:17:40.034Z,10.00
2018-05-25T12:18:39.994Z,11.20
2018-05-25T12:19:39.959Z,10.40
2018-05-25T12:20:39.918Z,11.30
2018-05-25T12:21:39.882Z,11.60
2018-05-25T12:22:39.859Z,11.10
2018-05-25T12:23:39.823Z,9.60
2018-05-25T12:24:39.789Z,9.60
2018-05-25T12:25:39.744Z,9.70
2018-05-25T12:26:39.703Z,10.60
2018-05-25T12:27:39.669Z,10.00
2018-05-25T12:28:39.634Z,10.30
2018-05-25T12:29:39.598Z,10.80
2018-05-25T12:30:39.572Z,10.20
2018-05-25T12:31:39.531Z,10.70
2018-05-25T12:32:39.500Z,10.50
2018-05-25T12:33:39.461Z,9.40
2018-05-25T12:34:39.425Z,9.60
2018-05-25T12:35:39.396Z,9.40
2018-05-25T12:36:39.355Z,9.90
2018-05-25T12:37:39.321Z,8.90
2018-05-25T12:38:39.286Z,8.90
2018-05-25T12:39:39.254Z,9.60
2018-05-25T12:40:39.218Z,9.90
2018-05-25T12:41:39.183Z,10.80
2018-05-25T12:42:39.148Z,9.80
2018-05-25T12:43:39.113Z,10.10
2018-05-25T12:44:39.080Z,9.70
2018-05-25T12:45:39.047Z,10.20
2018-05-25T12:46:39.009Z,9.60
2018-05-25T12:47:38.979Z,10.20
2018-05-25T12:48:38.941Z,9.30
2018-05-25T12:49:38.910Z,10.40
2018-05-25T12:50:38.876Z,9.70
2018-05-25T12:51:38.841Z,9.40
2018-05-25T12:53:38.778Z,9.00
2018-05-25T12:54:38.743Z,8.80
2018-05-25T12:55:38.706Z,9.80
2018-05-25T12:56:38.731Z,10.80